Time;durP1;ratioP1;P1;durP2;ratioP2;P2;SDS_P1;SDS_P2;PMS_P1;PMS_P2;Temp;Humidity;BMP_temperature;BMP_pressure;BME280_temperature;BME280_humidity;BME280_pressure;Samples;Min_cycle;Max_cycle;Signal;HPM_P1;HPM_P2
2022/01/31 00:02:07;;;;;;;15.10;5.40;;;;;;;3.90;66.39;100041.80;2970618;80;20994;-65
2022/01/31 00:06:09;;;;;;;8.93;3.15;;;;;;;3.98;67.73;100046.63;2970956;79;21593;-70
2022/01/31 00:10:13;;;;;;;17.42;5.22;;;;;;;4.03;67.83;100035.35;2970624;79;21628;-70
2022/01/31 00:14:29;;;;;;;24.77;5.20;;;;;;;4.15;68.48;100025.88;2970317;79;21618;-66
2022/01/31 00:18:18;;;;;;;19.07;6.45;;;;;;;4.24;68.45;100028.44;2970463;79;21078;-67
2022/01/31 00:22:19;;;;;;;11.03;5.33;;;;;;;4.32;69.09;100021.41;2971523;79;21062;-69
2022/01/31 00:26:21;;;;;;;18.98;7.35;;;;;;;4.27;69.64;100030.43;2970637;79;21046;-65
2022/01/31 00:30:23;;;;;;;10.82;6.08;;;;;;;4.32;69.67;100017.45;2970986;79;21084;-68
2022/01/31 00:34:25;;;;;;;14.43;8.63;;;;;;;4.42;69.73;100002.31;2970700;80;21002;-69
2022/01/31 00:38:27;;;;;;;14.20;6.92;;;;;;;4.41;69.70;100007.66;2970843;80;21571;-67
2022/01/31 00:42:30;;;;;;;16.02;5.83;;;;;;;4.45;69.92;99999.12;2967759;79;21047;-65
2022/01/31 00:46:40;;;;;;;14.85;6.28;;;;;;;4.45;70.13;99988.58;2966574;79;21023;-66
2022/01/31 00:50:39;;;;;;;24.95;7.70;;;;;;;4.48;70.22;99976.08;2966329;79;21035;-68
2022/01/31 00:54:41;;;;;;;10.98;5.42;;;;;;;4.46;69.93;99975.33;2967055;79;21003;-66
2022/01/31 00:58:42;;;;;;;31.37;10.68;;;;;;;4.35;70.25;99965.91;2966626;80;21031;-69
2022/01/31 01:02:44;;;;;;;15.50;8.43;;;;;;;4.46;70.29;99972.70;2966393;79;20975;-67
2022/01/31 01:06:46;;;;;;;22.93;8.68;;;;;;;4.37;69.91;99953.03;2965873;80;21089;-68
2022/01/31 01:10:47;;;;;;;23.27;7.50;;;;;;;4.44;70.46;99946.92;2966037;79;21066;-65
2022/01/31 01:14:49;;;;;;;13.22;4.22;;;;;;;4.45;70.06;99944.67;2966180;79;21054;-66
2022/01/31 01:18:51;;;;;;;12.58;4.97;;;;;;;4.46;69.51;99945.04;2966172;80;21367;-66
2022/01/31 01:22:53;;;;;;;14.63;4.80;;;;;;;4.37;69.24;99925.38;2966321;79;20960;-68
2022/01/31 01:26:55;;;;;;;25.30;6.28;;;;;;;4.42;69.69;99922.44;2965136;79;21053;-67
2022/01/31 01:30:57;;;;;;;13.70;6.12;;;;;;;4.43;69.60;99931.58;2967176;79;20999;-69
2022/01/31 01:35:03;;;;;;;11.00;4.20;;;;;;;4.36;69.82;99912.30;2966515;80;20991;-65
2022/01/31 01:39:03;;;;;;;13.55;5.20;;;;;;;4.44;69.20;99892.94;2966384;79;20982;-69
2022/01/31 01:43:05;;;;;;;13.62;5.97;;;;;;;4.42;68.77;99896.97;2965349;79;20975;-66
2022/01/31 01:47:07;;;;;;;9.15;3.62;;;;;;;4.41;68.29;99887.37;2966564;80;21042;-69
2022/01/31 01:51:09;;;;;;;8.00;4.17;;;;;;;4.45;68.27;99888.50;2967119;80;21007;-70
2022/01/31 01:55:11;;;;;;;12.25;5.33;;;;;;;4.50;68.69;99882.45;2966977;79;21003;-70
2022/01/31 01:59:12;;;;;;;6.55;3.30;;;;;;;4.58;68.85;99865.71;2965914;79;20959;-65
2022/01/31 02:03:14;;;;;;;17.07;6.33;;;;;;;4.53;68.79;99848.05;2966933;80;20975;-67
2022/01/31 02:07:15;;;;;;;14.13;5.22;;;;;;;4.57;69.09;99852.17;2965778;79;21026;-69
2022/01/31 02:11:20;;;;;;;16.30;5.70;;;;;;;4.61;70.04;99836.99;2951361;80;21066;-69
2022/01/31 02:15:24;;;;;;;22.13;6.37;;;;;;;4.61;70.51;99837.85;2966818;79;21058;-67
2022/01/31 02:19:24;;;;;;;20.88;5.85;;;;;;;4.62;70.92;99839.54;2966558;79;21026;-66
2022/01/31 02:23:27;;;;;;;14.18;5.65;;;;;;;4.56;71.58;99812.28;2966650;80;21049;-66
2022/01/31 02:27:36;;;;;;;15.40;7.12;;;;;;;4.61;71.92;99803.60;2966099;80;20987;-68
2022/01/31 02:31:44;;;;;;;23.55;6.33;;;;;;;4.62;71.72;99794.75;2967123;79;21094;-69
2022/01/31 02:35:55;;;;;;;15.28;6.03;;;;;;;4.60;71.43;99791.83;2966898;80;21402;-66
2022/01/31 02:39:57;;;;;;;15.05;6.58;;;;;;;4.65;71.74;99794.55;2965904;80;21821;-65
2022/01/31 02:44:00;;;;;;;14.23;5.30;;;;;;;4.64;72.12;99790.23;2971218;79;21073;-69
2022/01/31 02:48:03;;;;;;;15.20;6.03;;;;;;;4.64;71.93;99788.08;2971449;80;20999;-65
2022/01/31 02:52:06;;;;;;;23.90;5.87;;;;;;;4.71;72.21;99772.23;2971288;79;20995;-66
2022/01/31 02:56:09;;;;;;;23.65;6.78;;;;;;;4.73;72.10;99772.14;2971384;80;21062;-68
2022/01/31 03:00:12;;;;;;;14.58;5.92;;;;;;;4.76;71.76;99765.35;2970232;80;21066;-69
2022/01/31 03:04:14;;;;;;;20.27;7.10;;;;;;;4.71;72.04;99756.42;2971436;80;21015;-65
2022/01/31 03:08:16;;;;;;;19.07;5.65;;;;;;;4.74;72.19;99744.84;2971279;80;21014;-70
2022/01/31 03:12:17;;;;;;;14.33;6.83;;;;;;;4.73;72.36;99742.67;2970778;80;21050;-67
2022/01/31 03:16:19;;;;;;;23.25;8.45;;;;;;;4.66;72.35;99725.10;2971251;79;21026;-67
2022/01/31 03:20:23;;;;;;;24.18;5.62;;;;;;;4.65;72.73;99732.63;2970937;79;21506;-70
2022/01/31 03:24:25;;;;;;;22.15;6.45;;;;;;;4.62;72.99;99730.20;2971234;80;21042;-69
2022/01/31 03:28:26;;;;;;;21.85;8.25;;;;;;;4.59;72.91;99714.61;2971721;80;21014;-67
2022/01/31 03:32:28;;;;;;;18.50;6.92;;;;;;;4.57;73.39;99700.70;2971683;79;21042;-68
2022/01/31 03:36:30;;;;;;;20.17;6.50;;;;;;;4.52;73.49;99688.28;2971507;80;21039;-68
2022/01/31 03:40:32;;;;;;;11.60;5.25;;;;;;;4.50;73.87;99688.41;2970942;80;20994;-68
2022/01/31 03:44:34;;;;;;;17.00;6.42;;;;;;;4.47;74.16;99683.80;2961558;80;21026;-66
2022/01/31 03:48:36;;;;;;;21.87;6.95;;;;;;;4.41;74.33;99674.05;2961120;79;21583;-66
2022/01/31 03:52:38;;;;;;;17.70;5.58;;;;;;;4.39;74.15;99673.31;2961656;79;21046;-66
2022/01/31 03:56:39;;;;;;;13.85;6.55;;;;;;;4.41;74.44;99666.61;2961749;79;21074;-69
2022/01/31 04:00:41;;;;;;;15.08;5.30;;;;;;;4.48;74.43;99663.09;2961556;79;21007;-68
2022/01/31 04:04:43;;;;;;;21.05;5.08;;;;;;;4.48;74.25;99655.20;2961447;80;21011;-66
2022/01/31 04:08:45;;;;;;;11.10;5.22;;;;;;;4.50;73.91;99645.40;2962395;79;20959;-66
2022/01/31 04:12:47;;;;;;;17.35;6.53;;;;;;;4.49;74.08;99648.52;2961321;79;21066;-67
2022/01/31 04:16:48;;;;;;;15.45;7.05;;;;;;;4.48;74.04;99637.62;2961556;79;21010;-72
2022/01/31 04:20:51;;;;;;;27.30;6.70;;;;;;;4.48;73.71;99625.77;2961393;80;20995;-68
2022/01/31 04:24:58;;;;;;;13.53;5.47;;;;;;;4.43;74.03;99624.75;2962566;80;21069;-69
2022/01/31 04:29:04;;;;;;;12.03;5.42;;;;;;;4.37;73.67;99615.95;2962806;80;21074;-70
2022/01/31 04:33:00;;;;;;;14.00;6.47;;;;;;;4.30;74.14;99614.66;2962350;79;23349;-69
2022/01/31 04:37:03;;;;;;;15.60;5.50;;;;;;;4.20;74.99;99603.89;2964213;79;21035;-70
2022/01/31 04:41:05;;;;;;;18.37;5.92;;;;;;;4.13;74.77;99606.11;2964751;79;21031;-70
2022/01/31 04:45:08;;;;;;;24.30;7.85;;;;;;;4.09;74.15;99592.76;2974232;80;21071;-69
2022/01/31 04:49:09;;;;;;;16.40;6.10;;;;;;;4.04;74.21;99592.72;2972996;78;21007;-69
2022/01/31 04:53:12;;;;;;;26.40;7.85;;;;;;;4.06;74.54;99582.92;2973636;79;21693;-69
2022/01/31 04:57:14;;;;;;;15.98;6.62;;;;;;;4.04;74.96;99579.55;2974121;79;20999;-69
2022/01/31 05:01:16;;;;;;;22.75;7.75;;;;;;;4.07;74.92;99582.80;2973521;79;20963;-69
2022/01/31 05:05:17;;;;;;;20.30;6.90;;;;;;;4.09;74.32;99579.59;2973136;79;21006;-71
2022/01/31 05:09:19;;;;;;;14.98;7.00;;;;;;;4.08;74.17;99567.38;2973327;79;21038;-70
2022/01/31 05:13:21;;;;;;;33.55;7.80;;;;;;;4.07;74.02;99553.03;2972613;80;21050;-70
2022/01/31 05:17:22;;;;;;;28.65;6.97;;;;;;;4.05;73.84;99558.37;2972341;80;21026;-71
2022/01/31 05:21:24;;;;;;;11.70;4.75;;;;;;;4.02;74.40;99545.89;2972663;79;20970;-70
2022/01/31 05:25:26;;;;;;;22.37;8.20;;;;;;;4.00;73.47;99538.11;2972575;79;21023;-73
2022/01/31 05:29:27;;;;;;;18.75;5.45;;;;;;;3.99;73.56;99528.53;2972333;79;21034;-70
2022/01/31 05:33:29;;;;;;;12.78;5.25;;;;;;;4.00;73.74;99515.74;2973182;80;20991;-73
2022/01/31 05:37:31;;;;;;;24.00;7.50;;;;;;;4.01;73.26;99512.16;2973645;80;21496;-72
2022/01/31 05:41:33;;;;;;;18.98;5.22;;;;;;;3.99;73.45;99501.73;2973302;78;21712;-72
2022/01/31 05:45:35;;;;;;;14.53;5.85;;;;;;;3.97;73.79;99493.58;2973154;80;21090;-69
2022/01/31 05:49:38;;;;;;;24.00;7.42;;;;;;;3.94;73.55;99487.22;2972209;80;21030;-71
2022/01/31 05:53:40;;;;;;;33.50;7.10;;;;;;;3.94;73.50;99485.41;2973021;80;21006;-70
2022/01/31 05:57:43;;;;;;;20.02;7.55;;;;;;;3.95;73.19;99479.69;2972696;79;21030;-70
2022/01/31 06:01:44;;;;;;;20.23;5.33;;;;;;;3.98;73.45;99467.64;2972899;79;20999;-71
2022/01/31 06:05:46;;;;;;;18.42;5.87;;;;;;;3.96;73.40;99459.83;2974015;79;21061;-70
2022/01/31 06:09:48;;;;;;;28.55;7.78;;;;;;;3.93;73.47;99449.52;2973732;79;21046;-69
2022/01/31 06:13:50;;;;;;;17.77;7.70;;;;;;;3.94;73.38;99435.41;2973228;80;21097;-72
2022/01/31 06:17:52;;;;;;;14.95;8.03;;;;;;;3.96;73.37;99425.62;2973898;80;20992;-73
2022/01/31 06:21:53;;;;;;;27.73;7.53;;;;;;;3.95;73.53;99413.91;2973087;79;21367;-70
2022/01/31 06:25:55;;;;;;;20.82;6.97;;;;;;;3.99;73.73;99410.94;2973960;80;20975;-70
2022/01/31 06:29:57;;;;;;;25.82;6.42;;;;;;;3.97;74.02;99418.09;2973907;79;21030;-70
2022/01/31 06:33:59;;;;;;;13.85;6.05;;;;;;;3.90;73.94;99408.09;2973314;79;21400;-70
2022/01/31 06:38:01;;;;;;;24.52;7.83;;;;;;;3.94;74.19;99396.44;2973393;80;21594;-72
2022/01/31 06:42:03;;;;;;;19.62;7.22;;;;;;;3.91;74.34;99396.62;2971571;79;21281;-71
2022/01/31 06:46:05;;;;;;;24.77;6.87;;;;;;;3.89;73.96;99384.04;2963964;79;21066;-70
2022/01/31 06:50:09;;;;;;;28.32;8.05;;;;;;;3.84;73.97;99389.16;2964280;79;21040;-69
2022/01/31 06:54:10;;;;;;;16.60;8.10;;;;;;;3.90;73.76;99375.20;2963964;79;21038;-71
2022/01/31 06:58:12;;;;;;;15.40;4.62;;;;;;;3.94;73.78;99372.75;2963214;79;21077;-69
2022/01/31 07:02:13;;;;;;;20.70;7.67;;;;;;;3.98;74.05;99368.95;2964178;79;21312;-69
2022/01/31 07:06:15;;;;;;;16.10;6.40;;;;;;;3.96;73.67;99366.91;2964056;79;21074;-69
2022/01/31 07:10:17;;;;;;;14.40;5.53;;;;;;;4.00;73.75;99365.25;2963528;79;21050;-73
2022/01/31 07:18:36;;;;;;;12.47;5.47;;;;;;;4.09;74.04;99350.61;2964114;80;21046;-69
2022/01/31 07:22:39;;;;;;;24.15;6.17;;;;;;;4.09;74.04;99350.61;2963735;79;21316;-70
2022/01/31 07:26:43;;;;;;;17.82;5.87;;;;;;;4.07;73.00;99351.69;2963139;79;21034;-73
2022/01/31 07:30:48;;;;;;;16.42;5.67;;;;;;;4.12;72.79;99346.44;2963737;79;20952;-71
2022/01/31 07:34:52;;;;;;;12.65;5.97;;;;;;;4.13;72.19;99332.82;2964280;79;21007;-70
2022/01/31 07:38:53;;;;;;;13.50;6.20;;;;;;;4.16;72.09;99325.19;2963644;79;20995;-70
2022/01/31 07:42:55;;;;;;;14.40;6.85;;;;;;;4.20;71.75;99313.00;2963433;79;21058;-70
2022/01/31 07:46:57;;;;;;;20.00;8.53;;;;;;;4.24;71.68;99310.54;2963972;79;21019;-69
2022/01/31 07:50:58;;;;;;;34.33;9.03;;;;;;;4.34;71.35;99291.44;2963269;79;21050;-70
2022/01/31 07:55:02;;;;;;;19.60;7.50;;;;;;;4.39;71.33;99280.09;2963112;80;21003;-71
2022/01/31 07:59:04;;;;;;;18.00;8.98;;;;;;;4.41;70.64;99272.45;2963941;79;20998;-71
2022/01/31 08:03:06;;;;;;;20.00;7.25;;;;;;;4.43;70.92;99268.41;2964024;79;21007;-72
2022/01/31 08:07:07;;;;;;;19.95;8.18;;;;;;;4.45;69.93;99266.96;2962965;79;21003;-72
2022/01/31 08:11:10;;;;;;;29.35;8.13;;;;;;;4.49;70.11;99267.95;2964530;79;21010;-69
2022/01/31 08:15:21;;;;;;;26.12;9.75;;;;;;;4.50;70.23;99263.05;2964304;80;21053;-71
2022/01/31 08:19:15;;;;;;;23.47;7.70;;;;;;;4.52;70.23;99259.82;2961558;79;21058;-69
2022/01/31 08:23:17;;;;;;;22.55;6.35;;;;;;;4.54;70.03;99251.82;2964405;79;20972;-71
2022/01/31 08:27:18;;;;;;;28.52;9.03;;;;;;;4.55;69.78;99245.59;2963576;79;21062;-70
2022/01/31 08:31:40;;;;;;;23.67;7.72;;;;;;;4.55;69.87;99233.74;2963651;80;21038;-70
2022/01/31 08:39:45;;;;;;;16.42;6.75;;;;;;;4.74;69.57;99211.30;2964626;80;21026;-70
2022/01/31 08:43:48;;;;;;;15.23;5.95;;;;;;;4.74;69.43;99200.27;2963193;80;21014;-70
2022/01/31 08:47:50;;;;;;;21.48;8.08;;;;;;;4.77;68.56;99193.45;2964076;80;21065;-70
2022/01/31 08:51:51;;;;;;;24.32;9.20;;;;;;;4.83;69.88;99193.47;2964196;80;21035;-70
2022/01/31 08:55:58;;;;;;;30.12;7.85;;;;;;;4.81;69.12;99180.41;2965088;80;21058;-71
2022/01/31 09:00:01;;;;;;;22.52;8.08;;;;;;;4.88;69.38;99189.19;2964945;79;21410;-73
2022/01/31 09:04:04;;;;;;;18.35;8.08;;;;;;;4.91;69.71;99181.86;2964972;80;21070;-73
2022/01/31 09:08:06;;;;;;;21.15;7.28;;;;;;;4.91;68.48;99172.64;2964356;79;21035;-73
2022/01/31 09:12:10;;;;;;;21.45;8.83;;;;;;;4.96;68.50;99173.61;2964631;80;21030;-70
2022/01/31 09:16:12;;;;;;;20.32;7.87;;;;;;;5.06;69.18;99169.33;2964675;80;21030;-72
2022/01/31 09:20:14;;;;;;;31.52;9.60;;;;;;;5.07;68.75;99165.73;2964142;80;21062;-69
2022/01/31 09:24:15;;;;;;;21.25;7.97;;;;;;;5.16;68.89;99176.05;2964911;79;21069;-71
2022/01/31 09:28:17;;;;;;;12.30;8.30;;;;;;;5.24;69.88;99162.28;2965189;79;21523;-70
2022/01/31 09:32:22;;;;;;;27.90;6.50;;;;;;;5.28;69.39;99153.98;2965315;79;21045;-70
2022/01/31 09:36:22;;;;;;;25.48;9.83;;;;;;;5.37;68.50;99152.92;2964789;79;20963;-69
2022/01/31 09:40:26;;;;;;;22.35;9.40;;;;;;;5.44;68.54;99146.20;2964539;80;21756;-71
2022/01/31 09:44:45;;;;;;;20.72;8.73;;;;;;;5.52;68.58;99145.59;2964711;79;21066;-70
2022/01/31 09:48:41;;;;;;;48.28;11.60;;;;;;;5.64;68.80;99141.99;2963889;79;21584;-70
2022/01/31 09:52:42;;;;;;;16.35;8.65;;;;;;;5.75;68.42;99139.81;2964963;79;21007;-70
2022/01/31 09:56:46;;;;;;;26.62;9.63;;;;;;;5.82;68.23;99142.31;2965253;80;21011;-70
2022/01/31 10:01:05;;;;;;;23.77;8.68;;;;;;;5.83;68.11;99133.42;2965338;80;21412;-72
2022/01/31 10:05:07;;;;;;;36.05;11.22;;;;;;;5.88;69.16;99130.42;2964801;79;21006;-71
2022/01/31 10:09:23;;;;;;;25.27;10.90;;;;;;;5.95;68.53;99111.80;2945407;80;20956;-69
2022/01/31 10:17:55;;;;;;;18.00;8.73;;;;;;;6.14;67.71;99099.29;2965309;80;21003;-70
2022/01/31 10:22:07;;;;;;;22.25;8.10;;;;;;;6.18;66.73;99090.61;2965187;80;21046;-70
2022/01/31 10:26:25;;;;;;;32.03;9.15;;;;;;;6.22;66.05;99075.36;2965402;80;21046;-70
2022/01/31 10:30:30;;;;;;;21.12;9.33;;;;;;;6.20;65.81;99064.09;2965843;79;21043;-70
2022/01/31 10:34:40;;;;;;;24.20;9.28;;;;;;;6.33;66.39;99048.91;2965609;79;21049;-70
2022/01/31 10:38:43;;;;;;;19.40;8.13;;;;;;;6.39;65.64;99043.09;2964288;79;21559;-70
2022/01/31 10:55:55;;;;;;;18.62;9.03;;;;;;;6.69;63.64;99021.65;2974672;80;21034;-70
2022/01/31 11:00:00;;;;;;;13.95;9.13;;;;;;;6.75;63.64;99016.80;2975080;80;21069;-70
2022/01/31 11:04:04;;;;;;;26.90;10.03;;;;;;;6.76;63.53;99011.36;2974656;79;21011;-70
2022/01/31 11:08:16;;;;;;;42.67;8.35;;;;;;;6.82;62.25;99005.56;2974937;79;21402;-69
2022/01/31 11:12:22;;;;;;;17.92;8.08;;;;;;;6.86;60.49;98992.89;2975660;79;21030;-70
2022/01/31 11:16:24;;;;;;;13.22;5.37;;;;;;;6.93;59.74;98982.16;2974376;79;21046;-72
2022/01/31 11:20:26;;;;;;;31.05;8.98;;;;;;;6.95;60.13;98974.92;2975211;80;21003;-69
2022/01/31 11:24:41;;;;;;;33.08;9.33;;;;;;;6.97;59.96;98969.02;2974820;80;21015;-70
2022/01/31 11:28:46;;;;;;;25.48;9.00;;;;;;;7.10;61.28;98966.62;2844611;83;21033;-71
2022/01/31 11:32:49;;;;;;;19.12;8.20;;;;;;;7.12;59.62;98962.84;2844967;83;20978;-69
2022/01/31 11:36:51;;;;;;;34.88;7.87;;;;;;;7.16;60.31;98966.06;2845193;83;21640;-70
2022/01/31 11:41:00;;;;;;;25.52;6.92;;;;;;;7.25;60.33;98964.41;2844435;83;20946;-67
2022/01/31 11:45:15;;;;;;;24.10;8.40;;;;;;;7.27;60.35;98957.17;2842413;83;20994;-71
2022/01/31 11:49:19;;;;;;;23.22;8.15;;;;;;;7.25;58.84;98959.94;2840331;83;21002;-72
2022/01/31 11:53:36;;;;;;;17.65;6.87;;;;;;;7.12;58.21;98955.41;2840895;83;21107;-72
2022/01/31 11:57:38;;;;;;;23.98;7.75;;;;;;;7.19;58.81;98951.23;2840142;83;21045;-69
2022/01/31 12:01:42;;;;;;;21.45;7.67;;;;;;;7.21;58.28;98945.33;2841273;83;21018;-70
2022/01/31 12:05:45;;;;;;;17.67;8.03;;;;;;;7.20;58.28;98939.69;2940528;80;21058;-70
2022/01/31 12:09:54;;;;;;;15.25;6.92;;;;;;;7.26;58.73;98932.52;2970812;79;21010;-70
2022/01/31 12:14:06;;;;;;;26.10;8.73;;;;;;;7.33;57.70;98927.52;2970570;80;20948;-68
2022/01/31 12:18:57;;;;;;;23.83;8.05;;;;;;;7.47;58.39;98922.80;2969195;79;20987;-68
2022/01/31 12:22:46;;;;;;;17.75;6.60;;;;;;;7.68;58.40;98914.72;2957765;80;21278;-70
2022/01/31 12:26:57;;;;;;;15.48;7.40;;;;;;;7.89;58.08;98908.41;2970434;79;21038;-68
2022/01/31 12:30:58;;;;;;;37.40;8.30;;;;;;;8.05;57.12;98902.52;2970491;80;21038;-67
2022/01/31 12:35:05;;;;;;;21.25;7.15;;;;;;;8.21;56.80;98904.55;2955727;80;21010;-67
2022/01/31 12:39:42;;;;;;;21.73;8.70;;;;;;;8.19;55.78;98904.71;2969924;79;20983;-70
2022/01/31 12:52:12;;;;;;;27.40;10.35;;;;;;;8.37;56.08;98902.13;2974957;79;21097;-70
2022/01/31 12:56:26;;;;;;;28.40;10.20;;;;;;;8.43;56.04;98901.53;2974786;80;20967;-70
2022/01/31 13:00:40;;;;;;;17.90;7.78;;;;;;;8.43;56.02;98894.91;2975095;80;21018;-70
2022/01/31 13:04:48;;;;;;;23.60;8.55;;;;;;;8.38;55.86;98895.84;2975001;80;20991;-70
2022/01/31 13:08:47;;;;;;;27.32;9.40;;;;;;;8.34;56.18;98893.14;2975008;79;21054;-70
2022/01/31 13:13:02;;;;;;;21.52;11.45;;;;;;;8.32;55.75;98895.58;2974811;79;20987;-70
2022/01/31 13:17:18;;;;;;;31.47;12.37;;;;;;;8.31;55.28;98884.64;2975657;79;21426;-70
2022/01/31 13:21:20;;;;;;;27.52;10.32;;;;;;;8.26;55.11;98887.75;2972942;79;21068;-69
2022/01/31 13:25:21;;;;;;;29.82;10.13;;;;;;;8.21;56.11;98888.17;2975082;79;20999;-71
2022/01/31 13:29:42;;;;;;;27.98;11.65;;;;;;;8.09;56.95;98895.94;2974856;79;21022;-71
2022/01/31 13:33:46;;;;;;;28.23;12.70;;;;;;;7.95;57.06;98895.92;2974338;80;21030;-71
2022/01/31 13:38:09;;;;;;;17.48;9.00;;;;;;;7.85;57.67;98895.94;2974791;79;21055;-70
2022/01/31 13:42:11;;;;;;;30.70;10.82;;;;;;;7.79;57.97;98899.16;2975221;79;20982;-70
2022/01/31 13:46:28;;;;;;;39.85;15.35;;;;;;;7.68;57.48;98904.13;2967802;79;21023;-71
2022/01/31 13:50:34;;;;;;;26.70;13.25;;;;;;;7.62;58.04;98892.29;2961133;80;21015;-70
2022/01/31 13:54:35;;;;;;;22.82;11.08;;;;;;;7.57;58.27;98897.99;2965272;79;21429;-70
2022/01/31 13:58:40;;;;;;;29.65;14.70;;;;;;;7.58;59.34;98897.02;2965507;79;21030;-71
2022/01/31 14:02:58;;;;;;;21.07;8.50;;;;;;;7.50;59.82;98896.90;2962806;80;21023;-67
2022/01/31 14:06:59;;;;;;;15.60;9.20;;;;;;;7.50;59.81;98894.72;2962053;79;20980;-70
2022/01/31 14:11:12;;;;;;;23.27;9.25;;;;;;;7.48;59.17;98901.97;2963306;80;20991;-71
2022/01/31 14:15:13;;;;;;;32.23;12.88;;;;;;;7.52;59.87;98903.36;2962975;79;21571;-69
2022/01/31 14:19:16;;;;;;;46.98;22.37;;;;;;;7.43;58.01;98896.62;2963420;79;21125;-72
2022/01/31 14:23:18;;;;;;;39.33;17.65;;;;;;;7.37;57.83;98897.66;2964589;80;21007;-69
2022/01/31 14:27:21;;;;;;;21.52;9.90;;;;;;;7.35;57.68;98900.94;2964058;79;21025;-66
2022/01/31 14:31:40;;;;;;;18.02;7.85;;;;;;;7.36;58.15;98898.63;2964861;79;21496;-66
2022/01/31 14:35:43;;;;;;;24.10;8.55;;;;;;;7.36;57.88;98897.31;2942203;78;21066;-68
2022/01/31 14:40:02;;;;;;;28.90;10.40;;;;;;;7.42;57.96;98904.20;2944732;80;21038;-67
2022/01/31 14:48:07;;;;;;;25.55;9.75;;;;;;;7.42;58.31;98899.39;2967661;80;21002;-69
2022/01/31 14:52:10;;;;;;;34.05;17.32;;;;;;;7.36;57.84;98896.81;2967308;80;21002;-69
2022/01/31 14:56:12;;;;;;;51.73;27.67;;;;;;;7.35;58.57;98904.39;2967371;80;21007;-68
2022/01/31 15:00:19;;;;;;;34.70;14.03;;;;;;;7.27;59.96;98906.44;2967273;80;21058;-68
2022/01/31 15:04:23;;;;;;;23.57;9.93;;;;;;;7.12;59.68;98923.68;2968405;80;20991;-67
2022/01/31 15:08:25;;;;;;;24.85;11.88;;;;;;;6.85;61.50;98914.56;2969157;79;21007;-67
2022/01/31 15:12:29;;;;;;;23.87;12.23;;;;;;;6.70;60.97;98914.97;2968540;80;21121;-67
2022/01/31 15:16:33;;;;;;;35.92;14.33;;;;;;;6.53;62.12;98924.35;2967267;79;21062;-67
2022/01/31 15:20:38;;;;;;;28.55;14.70;;;;;;;6.45;61.99;98931.27;2942876;79;21324;-69
2022/01/31 15:24:42;;;;;;;30.30;14.07;;;;;;;6.48;63.14;98927.03;2916448;81;20994;-68
2022/01/31 15:28:44;;;;;;;55.38;24.90;;;;;;;6.56;63.05;98935.15;2916428;81;20995;-68
2022/01/31 15:32:45;;;;;;;32.35;14.95;;;;;;;6.64;63.02;98940.59;2917191;80;21641;-68
2022/01/31 15:36:47;;;;;;;19.10;9.90;;;;;;;6.66;62.15;98939.97;2913344;81;21009;-68
2022/01/31 15:40:50;;;;;;;28.10;13.70;;;;;;;6.64;62.10;98942.41;2913127;81;21069;-67
2022/01/31 15:44:55;;;;;;;29.80;13.78;;;;;;;6.62;62.17;98939.89;2907148;81;21046;-67
2022/01/31 15:48:55;;;;;;;30.75;15.95;;;;;;;6.61;62.47;98942.19;2889296;82;21010;-67
2022/01/31 15:52:57;;;;;;;30.05;16.55;;;;;;;6.56;63.21;98953.64;2890245;82;21026;-68
2022/01/31 15:56:59;;;;;;;45.43;21.95;;;;;;;6.48;63.22;98952.98;2890065;82;21375;-68
2022/01/31 16:01:06;;;;;;;40.90;21.12;;;;;;;6.35;64.12;98957.16;2889808;80;21057;-70
2022/01/31 16:05:05;;;;;;;68.00;35.75;;;;;;;6.19;63.86;98958.97;2888737;82;20987;-67
2022/01/31 16:09:06;;;;;;;212.88;112.68;;;;;;;6.20;64.18;98964.59;2890530;81;22164;-68
2022/01/31 16:13:08;;;;;;;75.92;33.40;;;;;;;6.22;64.56;98965.77;2888844;81;21292;-68
2022/01/31 16:17:10;;;;;;;104.32;55.25;;;;;;;6.08;65.72;98971.73;2889516;82;22152;-71
2022/01/31 16:21:12;;;;;;;198.65;104.27;;;;;;;6.07;65.80;98980.62;2926544;80;20991;-74
2022/01/31 16:25:14;;;;;;;113.28;52.60;;;;;;;6.09;65.68;98981.35;2946700;80;21447;-69
2022/01/31 16:29:15;;;;;;;95.72;50.67;;;;;;;6.12;66.13;98981.55;2945102;80;21026;-68
2022/01/31 16:33:18;;;;;;;45.90;18.50;;;;;;;6.08;66.46;98995.48;2946617;80;21010;-67
2022/01/31 16:37:22;;;;;;;97.47;48.38;;;;;;;6.06;66.87;98993.47;2947086;80;20991;-68
2022/01/31 16:41:24;;;;;;;168.55;83.62;;;;;;;6.07;67.10;98999.09;2947068;80;20999;-68
2022/01/31 16:45:25;;;;;;;49.58;24.77;;;;;;;6.06;67.06;99002.70;2953505;80;21105;-68
2022/01/31 16:49:27;;;;;;;49.00;20.25;;;;;;;6.09;66.92;99007.75;2966735;80;21046;-67
2022/01/31 16:53:31;;;;;;;39.95;17.02;;;;;;;6.12;66.60;99008.81;2967160;79;21026;-66
2022/01/31 16:57:32;;;;;;;38.65;18.32;;;;;;;6.14;66.20;99021.87;2966943;79;21078;-67
2022/01/31 17:01:34;;;;;;;46.42;17.62;;;;;;;5.97;67.02;99017.47;2966540;79;21030;-66
2022/01/31 17:05:38;;;;;;;64.15;28.92;;;;;;;5.81;65.85;99036.39;2966753;80;20998;-70
2022/01/31 17:09:40;;;;;;;66.10;33.13;;;;;;;5.62;65.49;99042.34;2967126;79;21062;-68
2022/01/31 17:13:42;;;;;;;44.42;19.87;;;;;;;5.49;65.81;99039.84;2966939;79;21638;-69
2022/01/31 17:17:47;;;;;;;69.37;33.85;;;;;;;5.24;66.99;99041.81;2966949;80;21572;-73
2022/01/31 17:21:48;;;;;;;229.13;94.97;;;;;;;5.10;68.12;99057.88;2925908;80;21379;-68
2022/01/31 17:25:50;;;;;;;263.87;106.80;;;;;;;4.90;69.11;99044.47;2915030;81;21018;-69
2022/01/31 17:29:52;;;;;;;242.62;99.83;;;;;;;4.74;69.98;99047.47;2915415;81;21442;-67
2022/01/31 17:33:54;;;;;;;118.95;48.85;;;;;;;4.62;70.64;99062.89;2915439;81;21042;-69
2022/01/31 17:37:55;;;;;;;182.95;76.77;;;;;;;4.52;70.97;99078.09;2914947;81;20936;-68
2022/01/31 17:42:02;;;;;;;200.68;79.82;;;;;;;4.39;71.93;99080.83;2915460;81;21019;-67
2022/01/31 17:46:01;;;;;;;250.28;102.22;;;;;;;4.35;72.49;99086.43;2911995;81;21058;-68
2022/01/31 17:50:03;;;;;;;309.18;125.33;;;;;;;4.34;73.05;99087.39;2908192;81;21578;-70
2022/01/31 17:54:05;;;;;;;220.70;89.58;;;;;;;4.35;73.23;99086.43;2908831;81;21015;-69
2022/01/31 17:58:08;;;;;;;179.03;79.58;;;;;;;4.38;73.33;99091.00;2909365;81;21054;-70
2022/01/31 18:02:09;;;;;;;136.18;62.13;;;;;;;4.40;73.12;99093.50;2909316;81;21081;-70
2022/01/31 18:06:11;;;;;;;119.55;50.98;;;;;;;4.34;73.00;99102.72;2909700;81;21535;-67
2022/01/31 18:10:13;;;;;;;53.30;22.80;;;;;;;4.26;73.06;99105.06;2909868;81;21042;-68
2022/01/31 18:14:15;;;;;;;42.20;19.40;;;;;;;4.19;73.06;99109.13;2909441;81;21027;-71
2022/01/31 18:18:19;;;;;;;137.45;55.50;;;;;;;4.08;73.28;99112.06;2909655;81;20995;-67
2022/01/31 18:22:20;;;;;;;83.17;35.25;;;;;;;4.05;73.20;99109.66;2957685;80;20975;-69
2022/01/31 18:26:22;;;;;;;63.40;30.95;;;;;;;4.03;73.37;99112.03;2960452;79;21027;-68
2022/01/31 18:30:27;;;;;;;81.20;36.05;;;;;;;3.98;73.46;99118.97;2960998;80;21018;-66
2022/01/31 18:34:28;;;;;;;115.45;56.45;;;;;;;3.96;73.76;99120.88;2959645;79;21521;-68
2022/01/31 18:38:29;;;;;;;46.13;22.35;;;;;;;3.95;73.90;99120.51;2960897;79;20964;-66
2022/01/31 18:42:33;;;;;;;50.35;21.62;;;;;;;3.90;73.79;99115.58;2951484;79;21046;-67
2022/01/31 18:46:36;;;;;;;47.05;23.80;;;;;;;3.94;73.82;99122.28;2946904;80;21003;-67
2022/01/31 18:50:40;;;;;;;43.80;18.73;;;;;;;3.96;73.81;99125.64;2959898;79;20955;-66
2022/01/31 18:54:42;;;;;;;51.73;27.48;;;;;;;3.99;73.47;99133.80;2960266;80;21015;-68
2022/01/31 18:58:45;;;;;;;111.15;48.20;;;;;;;3.99;73.15;99137.75;2959895;80;21050;-69
2022/01/31 19:02:47;;;;;;;80.90;39.10;;;;;;;3.97;72.36;99135.22;2959881;80;21006;-68
2022/01/31 19:06:48;;;;;;;66.42;26.57;;;;;;;3.90;71.73;99135.77;2959961;79;21394;-67
2022/01/31 19:11:18;;;;;;;58.87;29.57;;;;;;;3.80;71.70;99150.92;2960184;80;21425;-67
2022/01/31 19:18:55;;;;;;;64.75;36.75;;;;;;;3.44;73.84;99167.05;2956641;80;21015;-70
2022/01/31 19:22:57;;;;;;;41.83;20.45;;;;;;;3.42;73.90;99169.77;2909089;81;20975;-69
2022/01/31 19:26:59;;;;;;;34.75;17.92;;;;;;;3.35;74.52;99182.16;2908872;81;20975;-67
2022/01/31 19:31:00;;;;;;;41.35;16.85;;;;;;;2.98;76.63;99197.34;2958720;79;21003;-66
2022/01/31 19:35:03;;;;;;;36.55;16.50;;;;;;;2.86;76.58;99202.95;2960649;79;21007;-69
2022/01/31 19:39:28;;;;;;;39.25;16.57;;;;;;;2.89;77.26;99207.98;2959761;79;21062;-70
2022/01/31 19:47:17;;;;;;;42.73;21.65;;;;;;;2.93;77.69;99223.91;2965520;79;21050;-69